createdAt,value
2019-01-29T00:01:42.249Z,99104.98
2019-01-29T00:04:12.334Z,99114.23
2019-01-29T00:06:42.872Z,99120.59
2019-01-29T00:09:12.960Z,99117.19
2019-01-29T00:11:42.999Z,99115.77
2019-01-29T00:14:13.160Z,99115.77
2019-01-29T00:16:43.469Z,99121.52
2019-01-29T00:19:14.099Z,99129.31
2019-01-29T00:21:43.860Z,99123.58
2019-01-29T00:24:13.877Z,99132.80
2019-01-29T00:26:43.628Z,99134.27
2019-01-29T00:29:14.348Z,99136.36
2019-01-29T00:31:44.419Z,99142.07
2019-01-29T00:34:14.488Z,99140.84
2019-01-29T00:36:44.486Z,99146.05
2019-01-29T00:39:14.899Z,99144.78
2019-01-29T00:41:44.908Z,99148.34
2019-01-29T00:44:14.920Z,99134.84
2019-01-29T00:46:44.886Z,99147.30
2019-01-29T00:49:14.913Z,99147.34
2019-01-29T00:51:45.295Z,99145.53
2019-01-29T00:54:15.554Z,99154.30
2019-01-29T00:56:45.798Z,99156.22
2019-01-29T00:59:16.315Z,99156.81
2019-01-29T01:01:46.567Z,99162.81
2019-01-29T01:04:16.691Z,99163.15
2019-01-29T01:06:46.423Z,99170.05
2019-01-29T01:09:16.176Z,99175.01
2019-01-29T01:11:46.411Z,99175.75
2019-01-29T01:14:16.678Z,99183.78
2019-01-29T01:16:46.452Z,99185.45
2019-01-29T01:19:16.518Z,99188.09
2019-01-29T01:21:46.526Z,99189.36
2019-01-29T01:24:16.282Z,99189.92
2019-01-29T01:26:46.248Z,99195.45
2019-01-29T01:29:16.074Z,99199.17
2019-01-29T01:31:45.799Z,99201.73
2019-01-29T01:34:15.797Z,99200.05
2019-01-29T01:36:45.536Z,99208.22
2019-01-29T01:39:16.141Z,99209.41
2019-01-29T01:41:46.810Z,99218.08
2019-01-29T01:44:16.616Z,99212.00
2019-01-29T01:46:46.447Z,99216.20
2019-01-29T01:49:16.311Z,99211.50
2019-01-29T01:51:46.362Z,99224.72
2019-01-29T01:54:16.106Z,99219.14
2019-01-29T01:56:45.918Z,99227.89
2019-01-29T01:59:15.976Z,99233.04
2019-01-29T02:01:45.743Z,99226.72
2019-01-29T02:04:15.530Z,99230.86
2019-01-29T02:06:45.338Z,99240.13
2019-01-29T02:09:15.107Z,99234.70
2019-01-29T02:11:45.453Z,99231.97
2019-01-29T02:14:15.435Z,99241.18
2019-01-29T02:16:45.194Z,99246.75
2019-01-29T02:19:14.931Z,99246.17
2019-01-29T02:21:46.160Z,99254.15
2019-01-29T02:24:15.904Z,99243.45
2019-01-29T02:26:46.448Z,99244.59
2019-01-29T02:29:17.167Z,99250.70
2019-01-29T02:31:46.919Z,99257.09
2019-01-29T02:34:17.090Z,99258.17
2019-01-29T02:36:47.144Z,99262.06
2019-01-29T02:39:17.468Z,99262.59
2019-01-29T02:41:48.165Z,99264.27
2019-01-29T02:44:18.289Z,99270.77
2019-01-29T02:46:48.557Z,99270.47
2019-01-29T02:49:19.781Z,99275.52
2019-01-29T02:51:50.054Z,99278.95
2019-01-29T02:54:20.089Z,99283.31
2019-01-29T02:56:49.861Z,99292.09
2019-01-29T02:59:20.543Z,99286.67
2019-01-29T03:01:51.032Z,99274.18
2019-01-29T03:04:20.795Z,99282.53
2019-01-29T03:06:50.695Z,99290.45
2019-01-29T03:09:20.918Z,99295.99
2019-01-29T03:11:50.915Z,99301.38
2019-01-29T03:14:20.831Z,99301.53
2019-01-29T03:16:50.650Z,99296.16
2019-01-29T03:19:20.641Z,99298.11
2019-01-29T03:21:50.806Z,99295.06
2019-01-29T03:24:21.010Z,99302.41
2019-01-29T03:26:50.787Z,99298.13
2019-01-29T03:29:21.239Z,99304.89
2019-01-29T03:31:51.067Z,99308.75
2019-01-29T03:34:20.876Z,99311.03
2019-01-29T03:36:50.693Z,99301.81
2019-01-29T03:39:21.310Z,99306.05
2019-01-29T03:41:51.301Z,99322.28
2019-01-29T03:44:21.292Z,99322.40
2019-01-29T03:46:51.355Z,99324.16
2019-01-29T03:49:21.097Z,99326.88
2019-01-29T03:51:50.847Z,99333.26
2019-01-29T03:54:20.680Z,99335.92
2019-01-29T03:56:50.733Z,99336.25
2019-01-29T03:59:20.514Z,99347.63
2019-01-29T04:01:50.001Z,99352.48
2019-01-29T04:04:20.056Z,99361.73
2019-01-29T04:06:49.849Z,99353.84
2019-01-29T04:09:20.001Z,99363.83
2019-01-29T04:11:49.880Z,99359.97
2019-01-29T04:14:20.119Z,99365.50
2019-01-29T04:16:50.197Z,99368.78
2019-01-29T04:19:20.443Z,99376.65
2019-01-29T04:21:50.715Z,99378.46
2019-01-29T04:24:20.901Z,99376.20
2019-01-29T04:26:50.802Z,99373.77
2019-01-29T04:29:20.941Z,99376.65
2019-01-29T04:31:50.966Z,99380.28
2019-01-29T04:34:21.470Z,99391.16
2019-01-29T04:36:51.696Z,99392.61
2019-01-29T04:39:21.996Z,99396.78
2019-01-29T04:41:51.848Z,99398.66
2019-01-29T04:44:21.584Z,99398.00
2019-01-29T04:46:51.598Z,99399.80
2019-01-29T04:49:21.880Z,99395.22
2019-01-29T04:51:52.008Z,99394.66
2019-01-29T04:54:22.525Z,99387.59
2019-01-29T04:56:52.539Z,99397.89
2019-01-29T04:59:22.755Z,99393.95
2019-01-29T05:01:53.691Z,99397.77
2019-01-29T05:04:24.353Z,99398.94
2019-01-29T05:06:55.625Z,99405.50
2019-01-29T05:09:26.086Z,99404.95
2019-01-29T05:11:56.329Z,99399.91
2019-01-29T05:14:26.308Z,99398.91
2019-01-29T05:16:56.264Z,99402.64
2019-01-29T05:19:26.027Z,99405.19
2019-01-29T05:21:56.251Z,99410.39
2019-01-29T05:24:27.706Z,99409.70
2019-01-29T05:26:57.454Z,99416.09
2019-01-29T05:29:27.754Z,99419.20
2019-01-29T05:31:57.773Z,99422.19
2019-01-29T05:34:27.509Z,99426.16
2019-01-29T05:36:57.727Z,99426.66
2019-01-29T05:39:27.693Z,99422.27
2019-01-29T05:41:57.782Z,99427.32
2019-01-29T05:44:27.739Z,99425.63
2019-01-29T05:46:57.791Z,99424.67
2019-01-29T05:49:27.502Z,99424.33
2019-01-29T05:51:57.522Z,99427.20
2019-01-29T05:54:27.525Z,99423.72
2019-01-29T05:56:57.326Z,99429.87
2019-01-29T05:59:27.311Z,99428.00
2019-01-29T06:01:57.580Z,99438.66
2019-01-29T06:04:27.417Z,99426.45
2019-01-29T06:06:57.438Z,99440.25
2019-01-29T06:09:27.438Z,99438.07
2019-01-29T06:11:57.482Z,99435.09
2019-01-29T06:14:27.740Z,99445.53
2019-01-29T06:16:58.289Z,99444.65
2019-01-29T06:19:27.798Z,99447.95
2019-01-29T06:21:58.052Z,99445.03
2019-01-29T06:24:28.055Z,99442.55
2019-01-29T06:26:57.797Z,99445.60
2019-01-29T06:29:28.208Z,99447.98
2019-01-29T06:31:59.568Z,99444.83
2019-01-29T06:34:29.342Z,99449.12
2019-01-29T06:36:59.328Z,99450.23
2019-01-29T06:39:29.535Z,99451.77
2019-01-29T06:41:59.824Z,99453.48
2019-01-29T06:44:30.687Z,99456.55
2019-01-29T06:47:01.143Z,99455.67
2019-01-29T06:49:31.387Z,99461.38
2019-01-29T06:52:01.415Z,99465.47
2019-01-29T06:54:34.284Z,99470.41
2019-01-29T06:57:04.511Z,99476.83
2019-01-29T06:59:34.932Z,99489.27
2019-01-29T07:02:08.217Z,99487.16
2019-01-29T07:04:38.052Z,99486.89
2019-01-29T07:07:07.817Z,99495.23
2019-01-29T07:09:38.290Z,99490.91
2019-01-29T07:12:08.087Z,99498.52
2019-01-29T07:14:37.626Z,99502.84
2019-01-29T07:17:31.992Z,99502.97
2019-01-29T07:20:05.215Z,99500.94
2019-01-29T07:22:35.247Z,99499.41
2019-01-29T07:25:06.481Z,99501.94
2019-01-29T07:27:36.465Z,99503.99
2019-01-29T07:30:07.422Z,99502.46
2019-01-29T07:32:37.465Z,99507.33
2019-01-29T07:35:07.999Z,99513.49
2019-01-29T07:37:38.044Z,99511.16
2019-01-29T07:40:08.410Z,99507.74
2019-01-29T07:42:38.688Z,99511.34
2019-01-29T07:45:09.176Z,99510.23
2019-01-29T07:47:39.157Z,99515.98
2019-01-29T07:50:09.029Z,99511.91
2019-01-29T07:52:38.520Z,99512.50
2019-01-29T07:55:08.432Z,99508.24
2019-01-29T07:57:38.427Z,99513.80
2019-01-29T08:00:09.304Z,99512.26
2019-01-29T08:02:40.341Z,99518.50
2019-01-29T08:05:10.259Z,99522.20
2019-01-29T08:07:40.038Z,99525.48
2019-01-29T08:10:10.360Z,99523.10
2019-01-29T08:12:40.434Z,99533.02
2019-01-29T08:15:10.789Z,99530.55
2019-01-29T08:17:40.633Z,99533.96
2019-01-29T08:20:10.943Z,99525.39
2019-01-29T08:22:42.109Z,99534.65
2019-01-29T08:25:12.227Z,99538.06
2019-01-29T08:27:42.153Z,99536.86
2019-01-29T08:30:12.341Z,99542.23
2019-01-29T08:32:42.947Z,99535.49
2019-01-29T08:35:13.876Z,99544.22
2019-01-29T08:37:44.104Z,99540.21
2019-01-29T08:40:13.777Z,99541.49
2019-01-29T08:42:44.031Z,99543.09
2019-01-29T08:45:13.872Z,99546.98
2019-01-29T08:47:43.898Z,99546.20
2019-01-29T08:50:16.583Z,99550.03
2019-01-29T08:52:46.788Z,99547.52
2019-01-29T08:55:16.842Z,99547.64
2019-01-29T08:57:46.862Z,99553.06
2019-01-29T09:00:17.100Z,99552.83
2019-01-29T09:02:47.935Z,99554.32
2019-01-29T09:05:18.526Z,99556.09
2019-01-29T09:07:49.080Z,99546.96
2019-01-29T09:10:19.303Z,99555.38
2019-01-29T09:12:49.270Z,99550.14
2019-01-29T09:15:19.309Z,99561.20
2019-01-29T09:17:50.125Z,99554.83
2019-01-29T09:20:20.145Z,99556.28
2019-01-29T09:22:49.956Z,99558.14
2019-01-29T09:25:22.715Z,99556.88
2019-01-29T09:27:52.087Z,99556.41
2019-01-29T09:30:22.295Z,99561.75
2019-01-29T09:32:52.124Z,99563.04
2019-01-29T09:35:22.141Z,99562.08
2019-01-29T09:37:52.180Z,99567.05
2019-01-29T09:40:22.035Z,99569.50
2019-01-29T09:42:51.663Z,99563.14
2019-01-29T09:45:21.383Z,99560.66
2019-01-29T09:47:51.634Z,99565.13
2019-01-29T09:50:22.138Z,99566.45
2019-01-29T09:52:54.154Z,99557.17
2019-01-29T09:55:29.293Z,99559.24
2019-01-29T09:57:56.374Z,99562.80
2019-01-29T10:00:28.585Z,99568.58
2019-01-29T10:02:59.265Z,99558.77
2019-01-29T10:05:30.031Z,99562.08
2019-01-29T10:08:00.299Z,99561.67
2019-01-29T10:10:30.080Z,99564.36
2019-01-29T10:13:00.124Z,99565.08
2019-01-29T10:15:31.933Z,99561.55
2019-01-29T10:18:02.116Z,99564.96
2019-01-29T10:20:32.440Z,99566.40
2019-01-29T10:23:02.743Z,99563.32
2019-01-29T10:25:37.814Z,99564.34
2019-01-29T10:28:05.455Z,99563.47
2019-01-29T10:30:35.731Z,99558.45
2019-01-29T10:33:05.550Z,99558.45
2019-01-29T10:35:35.582Z,99565.79
2019-01-29T10:38:05.679Z,99562.02
2019-01-29T10:40:35.540Z,99563.80
2019-01-29T10:43:05.383Z,99558.07
2019-01-29T10:45:35.261Z,99555.81
2019-01-29T10:48:05.439Z,99564.27
2019-01-29T10:50:35.625Z,99561.52
2019-01-29T10:53:06.061Z,99554.05
2019-01-29T10:55:35.790Z,99556.92
2019-01-29T10:58:05.758Z,99552.34
2019-01-29T11:00:38.275Z,99551.73
2019-01-29T11:03:09.766Z,99545.00
2019-01-29T11:05:39.857Z,99547.86
2019-01-29T11:08:09.957Z,99548.05
2019-01-29T11:10:40.097Z,99545.38
2019-01-29T11:13:10.346Z,99545.13
2019-01-29T11:15:42.099Z,99544.77
2019-01-29T11:18:15.288Z,99552.19
2019-01-29T11:20:45.881Z,99541.75
2019-01-29T11:23:17.731Z,99538.84
2019-01-29T11:25:55.721Z,99532.34
2019-01-29T11:28:20.164Z,99531.19
2019-01-29T11:30:49.902Z,99531.98
2019-01-29T11:33:20.407Z,99531.48
2019-01-29T11:35:50.647Z,99529.78
2019-01-29T11:38:21.970Z,99530.19
2019-01-29T11:40:52.367Z,99527.81
2019-01-29T11:43:22.448Z,99532.39
2019-01-29T11:45:54.074Z,99521.62
2019-01-29T11:48:24.284Z,99520.70
2019-01-29T11:50:54.592Z,99521.55
2019-01-29T11:53:24.579Z,99524.62
2019-01-29T11:55:54.473Z,99524.62
2019-01-29T11:58:24.274Z,99517.09
2019-01-29T12:00:58.888Z,99514.69
2019-01-29T12:03:29.201Z,99508.70
2019-01-29T12:05:59.348Z,99507.12
2019-01-29T12:08:28.963Z,99517.82
2019-01-29T12:10:59.145Z,99505.04
2019-01-29T12:13:29.159Z,99506.99
2019-01-29T12:15:58.967Z,99505.59
2019-01-29T12:18:28.893Z,99503.22
2019-01-29T12:20:59.344Z,99509.59
2019-01-29T12:23:29.592Z,99504.52
2019-01-29T12:25:59.743Z,99504.50
2019-01-29T12:28:29.833Z,99501.19
2019-01-29T12:31:00.025Z,99500.35
2019-01-29T12:33:29.780Z,99500.21
2019-01-29T12:35:59.762Z,99505.03
2019-01-29T12:38:30.061Z,99505.16
2019-01-29T12:41:00.247Z,99502.56
2019-01-29T12:43:30.002Z,99507.66
2019-01-29T12:46:00.244Z,99503.36
2019-01-29T12:48:30.511Z,99500.92
2019-01-29T12:51:01.191Z,99505.87
2019-01-29T12:53:39.508Z,99501.85
2019-01-29T12:56:09.566Z,99495.84
2019-01-29T12:58:39.751Z,99496.60
2019-01-29T13:01:09.849Z,99505.97
2019-01-29T13:03:40.267Z,99502.29
2019-01-29T13:06:10.036Z,99509.03
2019-01-29T13:08:42.367Z,99499.16
2019-01-29T13:11:12.268Z,99494.34
2019-01-29T13:13:42.196Z,99497.48
2019-01-29T13:16:12.093Z,99495.82
2019-01-29T13:18:42.107Z,99496.05
2019-01-29T13:21:12.845Z,99499.95
2019-01-29T13:23:42.973Z,99496.63
2019-01-29T13:26:13.407Z,99492.75
2019-01-29T13:28:43.230Z,99491.59
2019-01-29T13:31:13.416Z,99486.42
2019-01-29T13:33:43.562Z,99484.79
2019-01-29T13:36:13.567Z,99478.03
2019-01-29T13:38:44.652Z,99484.68
2019-01-29T13:41:15.434Z,99483.81
2019-01-29T13:43:45.759Z,99481.80
2019-01-29T13:46:15.870Z,99479.63
2019-01-29T13:48:45.788Z,99479.45
2019-01-29T13:51:16.416Z,99475.63
2019-01-29T13:53:46.700Z,99478.26
2019-01-29T13:56:16.861Z,99487.69
2019-01-29T13:58:48.050Z,99475.80
2019-01-29T14:01:18.121Z,99473.23
2019-01-29T14:03:48.138Z,99474.22
2019-01-29T14:06:18.169Z,99470.39
2019-01-29T14:08:48.201Z,99472.06
2019-01-29T14:11:18.424Z,99471.49
2019-01-29T14:13:48.525Z,99469.86
2019-01-29T14:16:18.860Z,99471.73
2019-01-29T14:18:49.062Z,99469.66
2019-01-29T14:21:19.860Z,99466.65
2019-01-29T14:23:50.230Z,99472.27
2019-01-29T14:26:20.038Z,99463.77
2019-01-29T14:28:50.060Z,99463.59
2019-01-29T14:31:20.180Z,99457.70
2019-01-29T14:33:49.676Z,99458.66
2019-01-29T14:36:19.484Z,99459.48
2019-01-29T14:39:25.798Z,99456.99
2019-01-29T14:41:56.377Z,99453.38
2019-01-29T14:44:39.511Z,99454.73
2019-01-29T14:47:10.207Z,99451.13
2019-01-29T14:49:40.425Z,99454.88
2019-01-29T14:52:10.434Z,99445.59
2019-01-29T14:54:40.295Z,99449.31
2019-01-29T14:57:10.219Z,99439.38
2019-01-29T14:59:40.237Z,99445.80
2019-01-29T15:02:10.341Z,99445.23
2019-01-29T15:04:40.148Z,99440.80
2019-01-29T15:07:10.493Z,99437.77
2019-01-29T15:09:41.349Z,99436.24
2019-01-29T15:12:11.706Z,99433.14
2019-01-29T15:14:41.762Z,99438.70
2019-01-29T15:17:44.220Z,99434.30
2019-01-29T15:20:14.086Z,99434.86
2019-01-29T15:22:45.171Z,99434.38
2019-01-29T15:25:17.796Z,99431.23
2019-01-29T15:27:48.919Z,99427.55
2019-01-29T15:30:21.930Z,99430.36
2019-01-29T15:32:51.776Z,99423.16
2019-01-29T15:35:21.550Z,99422.00
2019-01-29T15:37:51.533Z,99420.69
2019-01-29T15:40:22.018Z,99422.76
2019-01-29T15:42:51.838Z,99413.12
2019-01-29T15:45:22.185Z,99418.08
2019-01-29T15:47:52.389Z,99417.27
2019-01-29T15:50:22.234Z,99413.52
2019-01-29T15:52:52.258Z,99412.65
2019-01-29T15:55:22.247Z,99409.20
2019-01-29T15:57:52.285Z,99413.17
2019-01-29T16:00:25.052Z,99415.00
2019-01-29T16:02:55.063Z,99411.32
2019-01-29T16:05:26.901Z,99406.67
2019-01-29T16:07:57.391Z,99407.45
2019-01-29T16:10:29.791Z,99404.73
2019-01-29T16:13:00.994Z,99408.70
2019-01-29T16:15:32.351Z,99405.28
2019-01-29T16:18:03.139Z,99410.79
2019-01-29T16:20:33.540Z,99409.34
2019-01-29T16:23:03.716Z,99406.99
2019-01-29T16:25:33.901Z,99409.84
2019-01-29T16:28:03.742Z,99412.73
2019-01-29T16:30:34.833Z,99405.50
2019-01-29T16:33:05.583Z,99404.66
2019-01-29T16:35:35.551Z,99403.71
2019-01-29T16:38:06.969Z,99403.83
2019-01-29T16:40:37.235Z,99400.38
2019-01-29T16:43:07.419Z,99403.82
2019-01-29T16:45:37.852Z,99399.58
2019-01-29T16:48:07.960Z,99399.25
2019-01-29T16:50:37.887Z,99397.47
2019-01-29T16:53:08.035Z,99391.23
2019-01-29T16:55:41.906Z,99384.66
2019-01-29T16:58:12.076Z,99385.17
2019-01-29T17:00:43.802Z,99387.59
2019-01-29T17:03:13.995Z,99379.22
2019-01-29T17:05:44.419Z,99380.16
2019-01-29T17:08:14.344Z,99376.61
2019-01-29T17:10:43.974Z,99375.94
2019-01-29T17:13:14.495Z,99372.71
2019-01-29T17:15:44.111Z,99367.99
2019-01-29T17:18:14.618Z,99368.19
2019-01-29T17:20:44.631Z,99366.38
2019-01-29T17:23:15.061Z,99366.30
2019-01-29T17:25:44.584Z,99369.30
2019-01-29T17:28:15.198Z,99365.72
2019-01-29T17:30:46.647Z,99361.61
2019-01-29T17:33:18.172Z,99364.54
2019-01-29T17:35:48.135Z,99363.72
2019-01-29T17:38:20.271Z,99356.24
2019-01-29T17:40:50.514Z,99356.39
2019-01-29T17:43:20.521Z,99349.73
2019-01-29T17:45:51.389Z,99345.88
2019-01-29T17:48:22.175Z,99345.80
2019-01-29T17:50:52.854Z,99339.18
2019-01-29T17:53:23.293Z,99344.20
2019-01-29T17:55:53.279Z,99338.59
2019-01-29T17:58:23.719Z,99338.05
2019-01-29T18:00:58.232Z,99336.43
2019-01-29T18:03:28.669Z,99334.50
2019-01-29T18:05:58.467Z,99328.85
2019-01-29T18:08:28.401Z,99338.77
2019-01-29T18:10:58.388Z,99329.41
2019-01-29T18:13:29.158Z,99329.98
2019-01-29T18:16:00.189Z,99329.87
2019-01-29T18:18:31.728Z,99329.22
2019-01-29T18:21:14.893Z,99328.61
2019-01-29T18:23:46.204Z,99331.37
2019-01-29T18:26:16.091Z,99327.97
2019-01-29T18:28:46.107Z,99330.99
2019-01-29T18:31:15.949Z,99321.98
2019-01-29T18:33:46.204Z,99324.56
2019-01-29T18:36:16.066Z,99321.50
2019-01-29T18:38:45.691Z,99327.72
2019-01-29T18:41:15.639Z,99323.45
2019-01-29T18:43:46.223Z,99325.01
2019-01-29T18:46:16.662Z,99326.31
2019-01-29T18:48:46.870Z,99329.79
2019-01-29T18:51:16.957Z,99326.62
2019-01-29T18:53:47.595Z,99323.13
2019-01-29T18:56:17.504Z,99325.55
2019-01-29T18:58:47.983Z,99324.19
2019-01-29T19:01:17.740Z,99318.76
2019-01-29T19:03:50.013Z,99317.84
2019-01-29T19:06:20.488Z,99324.94
2019-01-29T19:08:50.345Z,99325.88
2019-01-29T19:11:20.110Z,99320.55
2019-01-29T19:13:51.219Z,99321.92
2019-01-29T19:16:21.233Z,99316.02
2019-01-29T19:18:51.638Z,99316.69
2019-01-29T19:21:21.961Z,99314.67
2019-01-29T19:23:53.110Z,99316.66
2019-01-29T19:26:23.544Z,99311.46
2019-01-29T19:28:53.707Z,99306.70
2019-01-29T19:31:23.533Z,99307.06
2019-01-29T19:33:53.926Z,99308.86
2019-01-29T19:36:24.474Z,99311.75
2019-01-29T19:38:55.172Z,99307.08
2019-01-29T19:41:26.641Z,99306.72
2019-01-29T19:43:57.284Z,99304.75
2019-01-29T19:46:27.368Z,99299.70
2019-01-29T19:48:57.710Z,99300.75
2019-01-29T19:51:28.107Z,99301.30
2019-01-29T19:53:58.546Z,99301.68
2019-01-29T19:56:28.099Z,99294.79
2019-01-29T19:58:58.515Z,99294.50
2019-01-29T20:01:29.303Z,99295.42
2019-01-29T20:03:59.894Z,99297.60
2019-01-29T20:06:31.133Z,99289.36
2019-01-29T20:09:01.706Z,99293.88
2019-01-29T20:11:32.694Z,99286.89
2019-01-29T20:14:02.945Z,99291.09
2019-01-29T20:16:33.142Z,99282.30
2019-01-29T20:19:03.138Z,99288.84
2019-01-29T20:21:37.155Z,99279.70
2019-01-29T20:24:07.450Z,99276.37
2019-01-29T20:26:37.761Z,99274.78
2019-01-29T20:29:07.735Z,99267.63
2019-01-29T20:31:37.893Z,99270.95
2019-01-29T20:34:08.056Z,99269.27
2019-01-29T20:36:38.952Z,99271.08
2019-01-29T20:39:09.540Z,99267.64
2019-01-29T20:41:39.502Z,99262.88
2019-01-29T20:44:09.624Z,99262.77
2019-01-29T20:46:39.942Z,99261.25
2019-01-29T20:49:09.945Z,99255.64
2019-01-29T20:51:39.871Z,99256.60
2019-01-29T20:54:10.136Z,99251.31
2019-01-29T20:56:39.969Z,99249.73
2019-01-29T20:59:09.885Z,99246.80
2019-01-29T21:01:40.326Z,99238.20
2019-01-29T21:04:10.413Z,99245.33
2019-01-29T21:06:40.483Z,99244.65
2019-01-29T21:09:10.648Z,99239.61
2019-01-29T21:11:41.913Z,99241.93
2019-01-29T21:14:12.004Z,99240.00
2019-01-29T21:16:43.689Z,99240.92
2019-01-29T21:19:14.060Z,99233.91
2019-01-29T21:21:44.478Z,99233.23
2019-01-29T21:24:16.370Z,99234.30
2019-01-29T21:26:47.124Z,99234.54
2019-01-29T21:29:17.232Z,99225.94
2019-01-29T21:31:47.717Z,99226.03
2019-01-29T21:34:18.373Z,99220.91
2019-01-29T21:36:48.961Z,99214.41
2019-01-29T21:39:20.150Z,99213.09
2019-01-29T21:41:50.641Z,99215.41
2019-01-29T21:44:20.947Z,99215.49
2019-01-29T21:46:52.196Z,99221.03
2019-01-29T21:49:22.448Z,99210.46
2019-01-29T21:51:53.271Z,99218.69
2019-01-29T21:54:24.378Z,99217.25
2019-01-29T21:56:56.419Z,99218.19
2019-01-29T21:59:27.132Z,99216.03
2019-01-29T22:01:57.382Z,99212.19
2019-01-29T22:04:27.820Z,99214.19
2019-01-29T22:06:57.987Z,99214.28
2019-01-29T22:09:28.065Z,99209.75
2019-01-29T22:11:58.316Z,99198.01
2019-01-29T22:14:28.965Z,99193.16
2019-01-29T22:16:59.689Z,99193.16
2019-01-29T22:19:30.733Z,99191.96
2019-01-29T22:22:01.290Z,99185.75
2019-01-29T22:24:31.261Z,99191.84
2019-01-29T22:27:02.051Z,99183.20
2019-01-29T22:29:32.604Z,99186.00
2019-01-29T22:32:03.249Z,99182.98
2019-01-29T22:34:33.508Z,99175.70
2019-01-29T22:37:04.028Z,99172.59
2019-01-29T22:39:34.281Z,99173.39
2019-01-29T22:42:04.840Z,99173.09
2019-01-29T22:44:35.143Z,99171.20
2019-01-29T22:47:05.280Z,99166.64
2019-01-29T22:49:35.359Z,99169.48
2019-01-29T22:52:05.836Z,99165.83
2019-01-29T22:54:36.340Z,99167.73
2019-01-29T22:57:06.533Z,99162.98
2019-01-29T22:59:36.978Z,99165.17
2019-01-29T23:02:07.210Z,99161.27
2019-01-29T23:04:42.832Z,99161.59
2019-01-29T23:07:24.705Z,99164.50
2019-01-29T23:09:54.885Z,99161.56
2019-01-29T23:12:25.440Z,99149.32
2019-01-29T23:14:57.191Z,99151.25
2019-01-29T23:17:27.195Z,99141.98
2019-01-29T23:19:57.554Z,99143.91
2019-01-29T23:22:28.008Z,99142.55
2019-01-29T23:24:58.133Z,99136.16
2019-01-29T23:27:28.776Z,99131.33
2019-01-29T23:29:59.294Z,99135.52
2019-01-29T23:32:28.980Z,99128.02
2019-01-29T23:34:59.749Z,99134.39
2019-01-29T23:37:30.462Z,99124.80
2019-01-29T23:40:01.156Z,99118.92
2019-01-29T23:42:31.315Z,99119.72
2019-01-29T23:45:01.719Z,99117.20
2019-01-29T23:47:31.966Z,99113.48
2019-01-29T23:50:02.691Z,99108.19
2019-01-29T23:52:33.197Z,99107.44
2019-01-29T23:55:03.637Z,99101.06
2019-01-29T23:57:35.040Z,99097.37
